createdAt,value
2018-04-24T16:45:58.860Z,5.47
2018-04-24T16:48:29.210Z,5.00
2018-04-24T16:50:56.716Z,5.30
2018-04-24T16:53:24.243Z,4.63
2018-04-24T16:55:51.746Z,5.17
2018-04-24T16:58:19.287Z,4.90
2018-04-24T17:00:46.878Z,5.53
2018-04-24T17:03:14.321Z,4.80
2018-04-24T17:05:41.876Z,4.60
2018-04-24T17:08:09.423Z,5.10
2018-04-24T17:10:36.931Z,5.17
2018-04-24T17:13:04.496Z,5.20
2018-04-24T17:15:31.984Z,5.17
2018-04-24T17:17:59.513Z,5.40
2018-04-24T17:20:27.034Z,5.90
2018-04-24T17:22:54.572Z,5.43
2018-04-24T17:25:22.142Z,6.40
2018-04-24T17:27:49.701Z,5.57
2018-04-24T17:30:17.208Z,5.30
2018-04-24T17:32:44.762Z,4.60
2018-04-24T17:35:12.340Z,4.67
2018-04-24T17:37:39.866Z,4.80
2018-04-24T17:40:07.413Z,5.00
2018-04-24T17:42:34.931Z,5.40
2018-04-24T17:45:02.430Z,4.73
2018-04-24T17:47:29.973Z,5.03
2018-04-24T17:49:57.582Z,5.37
2018-04-24T17:52:25.025Z,5.07
2018-04-24T17:54:52.558Z,5.03
2018-04-24T17:57:20.075Z,5.13
2018-04-24T17:59:47.607Z,4.90
2018-04-24T18:02:15.129Z,5.70
2018-04-24T18:04:42.687Z,4.93
2018-04-24T18:07:10.731Z,5.40
2018-04-24T18:09:38.302Z,5.07
2018-04-24T18:12:05.849Z,5.30
2018-04-24T18:14:36.918Z,5.40
2018-04-24T18:17:05.285Z,5.90
2018-04-24T18:19:32.835Z,5.23
2018-04-24T18:22:00.334Z,4.97
2018-04-24T18:24:27.834Z,5.67
2018-04-24T18:26:55.545Z,5.40
2018-04-24T18:29:23.076Z,5.63
2018-04-24T18:31:50.569Z,6.23
2018-04-24T18:34:18.045Z,5.50
2018-04-24T18:36:45.504Z,5.47
2018-04-24T18:39:12.989Z,5.17
2018-04-24T18:41:40.501Z,5.10
2018-04-24T18:44:08.009Z,5.57
2018-04-24T18:46:35.470Z,5.40
2018-04-24T18:49:02.962Z,5.30
2018-04-24T18:51:30.426Z,5.40
2018-04-24T18:53:57.904Z,5.33
2018-04-24T18:56:25.378Z,5.60
2018-04-24T18:58:52.862Z,5.83
2018-04-24T19:01:20.368Z,5.37
2018-04-24T19:03:47.846Z,5.40
2018-04-24T19:06:15.306Z,5.70
2018-04-24T19:08:42.793Z,5.40
2018-04-24T19:11:10.256Z,5.53
2018-04-24T19:13:37.741Z,5.53
2018-04-24T19:16:05.209Z,5.60
2018-04-24T19:18:38.247Z,5.47
2018-04-24T19:21:05.706Z,5.93
2018-04-24T19:23:33.270Z,5.43
2018-04-24T19:26:00.668Z,5.97
2018-04-24T19:28:28.151Z,5.43
2018-04-24T19:30:55.650Z,6.23
2018-04-24T19:33:23.109Z,5.77
2018-04-24T19:35:50.598Z,5.77
2018-04-24T19:38:18.053Z,5.80
2018-04-24T19:40:51.213Z,5.50
2018-04-24T19:43:18.678Z,5.63
2018-04-24T19:45:46.163Z,6.50
2018-04-24T19:48:19.267Z,6.53
2018-04-24T19:50:46.823Z,6.20
2018-04-24T19:53:14.297Z,5.97
2018-04-24T19:55:41.826Z,6.40
2018-04-24T19:58:09.370Z,6.77
2018-04-24T20:00:36.850Z,6.27
2018-04-24T20:03:04.313Z,6.13
2018-04-24T20:05:31.836Z,6.80
2018-04-24T20:07:59.297Z,6.47
2018-04-24T20:10:26.841Z,6.57
2018-04-24T20:12:54.391Z,6.73
2018-04-24T20:15:21.869Z,6.60
2018-04-24T20:17:49.341Z,6.60
2018-04-24T20:20:16.833Z,6.67
2018-04-24T20:22:44.403Z,6.60
2018-04-24T20:25:11.887Z,6.77
2018-04-24T20:27:39.354Z,6.70
2018-04-24T20:30:06.838Z,6.43
2018-04-24T20:32:34.295Z,6.27
2018-04-24T20:35:01.766Z,7.07
2018-04-24T20:37:29.265Z,6.93
2018-04-24T20:39:56.748Z,6.40
2018-04-24T20:42:24.210Z,6.50
2018-04-24T20:44:51.698Z,5.80
2018-04-24T20:47:19.175Z,6.60
2018-04-24T20:49:46.628Z,6.67
2018-04-24T20:52:14.110Z,7.17
2018-04-24T20:54:41.572Z,6.63
2018-04-24T20:57:09.054Z,6.33
2018-04-24T20:59:36.537Z,6.30
2018-04-24T21:02:04.014Z,6.27
2018-04-24T21:04:31.466Z,7.00
2018-04-24T21:06:58.960Z,6.57
2018-04-24T21:09:26.439Z,6.33
2018-04-24T21:11:53.909Z,6.77
2018-04-24T21:14:21.377Z,6.73
2018-04-24T21:16:48.859Z,6.90
2018-04-24T21:19:16.331Z,7.60
2018-04-24T21:21:46.939Z,7.57
2018-04-24T21:24:14.393Z,7.30
2018-04-24T21:26:41.871Z,8.33
2018-04-24T21:29:09.443Z,7.60
2018-04-24T21:31:36.925Z,7.63
2018-04-24T21:34:04.377Z,7.67
2018-04-24T21:36:31.857Z,6.90
2018-04-24T21:38:59.317Z,6.70
2018-04-24T21:41:26.810Z,6.90
2018-04-24T21:43:54.276Z,7.03
2018-04-24T21:46:21.785Z,6.30
2018-04-24T21:48:49.250Z,6.00
2018-04-24T21:51:16.726Z,6.10
2018-04-24T21:53:44.189Z,6.00
2018-04-24T21:56:11.679Z,6.13
2018-04-24T21:58:39.139Z,6.07
2018-04-24T22:01:06.634Z,5.63
2018-04-24T22:03:34.090Z,5.90
2018-04-24T22:06:01.584Z,5.70
2018-04-24T22:08:29.044Z,5.83
2018-04-24T22:10:56.509Z,6.27
2018-04-24T22:13:23.989Z,6.53
2018-04-24T22:15:51.458Z,5.97
2018-04-24T22:18:18.945Z,6.13
2018-04-24T22:20:46.411Z,5.70
2018-04-24T22:23:13.914Z,5.50
2018-04-24T22:25:41.378Z,6.13
2018-04-24T22:28:08.862Z,5.97
2018-04-24T22:30:36.332Z,5.13
2018-04-24T22:33:03.940Z,5.70
2018-04-24T22:35:31.382Z,5.87
2018-04-24T22:37:58.865Z,5.33
2018-04-24T22:40:26.327Z,5.90
2018-04-24T22:42:53.810Z,6.20
2018-04-24T22:45:21.266Z,6.17
2018-04-24T22:47:48.749Z,5.33
2018-04-24T22:50:16.205Z,6.10
2018-04-24T22:52:44.053Z,5.60
2018-04-24T22:55:11.501Z,5.70
2018-04-24T22:57:38.980Z,5.73
2018-04-24T23:00:06.441Z,5.27
2018-04-24T23:02:33.922Z,5.37
2018-04-24T23:05:01.382Z,5.70
2018-04-24T23:07:28.873Z,5.40
2018-04-24T23:09:56.212Z,5.00
2018-04-24T23:12:35.526Z,5.60
2018-04-24T23:15:14.865Z,5.67
2018-04-24T23:17:54.179Z,5.40
2018-04-24T23:20:21.111Z,5.23
2018-04-24T23:22:48.593Z,5.97
2018-04-24T23:25:16.051Z,5.33
2018-04-24T23:27:43.533Z,5.63
2018-04-24T23:30:10.989Z,5.90
2018-04-24T23:32:38.475Z,5.23
2018-04-24T23:35:05.937Z,5.30
2018-04-24T23:37:33.389Z,5.80
2018-04-24T23:40:00.881Z,5.43
2018-04-24T23:42:28.351Z,5.70
2018-04-24T23:44:55.834Z,5.87
2018-04-24T23:47:23.298Z,6.20
2018-04-24T23:49:50.788Z,5.87
2018-04-24T23:52:18.248Z,6.23
2018-04-24T23:54:45.770Z,6.40
2018-04-24T23:57:13.230Z,5.83
2018-04-24T23:59:40.718Z,6.60
